createdAt,value
2017-12-21T00:01:54.122Z,1.87
2017-12-21T00:04:20.461Z,1.86
2017-12-21T00:06:48.087Z,1.87
2017-12-21T00:09:14.644Z,1.86
2017-12-21T00:11:41.384Z,1.88
2017-12-21T00:14:07.861Z,1.89
2017-12-21T00:16:34.491Z,1.91
2017-12-21T00:19:00.843Z,1.92
2017-12-21T00:21:27.489Z,1.93
2017-12-21T00:23:54.054Z,1.95
2017-12-21T00:26:20.238Z,1.96
2017-12-21T00:28:46.769Z,1.97
2017-12-21T00:31:13.198Z,1.98
2017-12-21T00:33:39.463Z,1.98
2017-12-21T00:36:05.913Z,1.99
2017-12-21T00:38:32.317Z,1.99
2017-12-21T00:40:58.912Z,1.99
2017-12-21T00:43:25.148Z,1.97
2017-12-21T00:46:03.640Z,1.95
2017-12-21T00:48:30.126Z,1.94
2017-12-21T00:50:56.710Z,1.93
2017-12-21T00:53:23.314Z,1.92
2017-12-21T00:55:49.694Z,1.91
2017-12-21T00:58:16.046Z,1.90
2017-12-21T01:00:42.530Z,1.91
2017-12-21T01:03:09.244Z,1.90
2017-12-21T01:05:35.633Z,1.89
2017-12-21T01:08:02.168Z,1.90
2017-12-21T01:10:28.666Z,1.91
2017-12-21T01:12:55.126Z,1.93
2017-12-21T01:15:21.732Z,1.93
2017-12-21T01:17:48.056Z,1.94
2017-12-21T01:20:14.438Z,1.93
2017-12-21T01:22:40.902Z,1.91
2017-12-21T01:25:07.410Z,1.88
2017-12-21T01:27:33.767Z,1.86
2017-12-21T01:30:00.084Z,1.84
2017-12-21T01:32:26.650Z,1.80
2017-12-21T01:34:53.190Z,1.76
2017-12-21T01:37:19.587Z,1.70
2017-12-21T01:39:45.921Z,1.64
2017-12-21T01:42:12.479Z,1.62
2017-12-21T01:44:38.917Z,1.62
2017-12-21T01:47:05.473Z,1.63
2017-12-21T01:49:32.075Z,1.65
2017-12-21T01:52:10.457Z,1.67
2017-12-21T01:54:36.855Z,1.68
2017-12-21T01:57:04.269Z,1.68
2017-12-21T01:59:31.013Z,1.69
2017-12-21T02:01:57.369Z,1.68
2017-12-21T02:04:23.793Z,1.69
2017-12-21T02:06:50.041Z,1.70
2017-12-21T02:09:16.573Z,1.70
2017-12-21T02:11:43.102Z,1.68
2017-12-21T02:14:09.766Z,1.68
2017-12-21T02:16:36.101Z,1.66
2017-12-21T02:19:02.694Z,1.67
2017-12-21T02:21:29.304Z,1.66
2017-12-21T02:23:55.748Z,1.66
2017-12-21T02:26:22.171Z,1.65
2017-12-21T02:28:48.814Z,1.64
2017-12-21T02:31:15.090Z,1.64
2017-12-21T02:33:41.834Z,1.63
2017-12-21T02:36:08.140Z,1.61
2017-12-21T02:38:34.490Z,1.60
2017-12-21T02:41:00.909Z,1.59
2017-12-21T02:43:27.434Z,1.59
2017-12-21T02:45:53.872Z,1.59
2017-12-21T02:48:20.403Z,1.61
2017-12-21T02:50:46.987Z,1.59
2017-12-21T02:53:13.515Z,1.59
2017-12-21T02:55:40.186Z,1.59
2017-12-21T02:58:07.111Z,1.59
2017-12-21T03:00:33.628Z,1.61
2017-12-21T03:02:59.937Z,1.63
2017-12-21T03:05:26.453Z,1.65
2017-12-21T03:07:53.117Z,1.65
2017-12-21T03:10:19.718Z,1.66
2017-12-21T03:12:45.956Z,1.67
2017-12-21T03:15:12.335Z,1.69
2017-12-21T03:17:38.839Z,1.70
2017-12-21T03:20:05.321Z,1.71
2017-12-21T03:22:31.632Z,1.72
2017-12-21T03:24:58.491Z,1.72
2017-12-21T03:27:24.793Z,1.72
2017-12-21T03:29:52.381Z,1.73
2017-12-21T03:32:19.095Z,1.73
2017-12-21T03:34:45.498Z,1.74
2017-12-21T03:37:11.831Z,1.76
2017-12-21T03:39:38.393Z,1.78
2017-12-21T03:42:04.900Z,1.81
2017-12-21T03:44:31.343Z,1.81
2017-12-21T03:46:57.829Z,1.82
2017-12-21T03:49:24.404Z,1.82
2017-12-21T03:51:50.818Z,1.82
2017-12-21T03:54:17.286Z,1.82
2017-12-21T03:56:43.797Z,1.83
2017-12-21T03:59:10.293Z,1.86
2017-12-21T04:01:36.953Z,1.87
2017-12-21T04:04:03.444Z,1.87
2017-12-21T04:06:29.866Z,1.88
2017-12-21T04:08:56.320Z,1.87
2017-12-21T04:11:22.952Z,1.88
2017-12-21T04:13:49.306Z,1.89
2017-12-21T04:16:15.957Z,1.88
2017-12-21T04:18:42.172Z,1.89
2017-12-21T04:21:08.940Z,1.89
2017-12-21T04:23:35.500Z,1.87
2017-12-21T04:26:01.939Z,1.86
2017-12-21T04:28:28.527Z,1.86
2017-12-21T04:30:54.916Z,1.87
2017-12-21T04:33:21.328Z,1.85
2017-12-21T04:35:47.688Z,1.86
2017-12-21T04:38:14.107Z,1.84
2017-12-21T04:40:40.720Z,1.83
2017-12-21T04:43:09.194Z,1.83
2017-12-21T04:45:35.777Z,1.83
2017-12-21T04:48:02.209Z,1.83
2017-12-21T04:50:28.663Z,1.83
2017-12-21T04:52:55.140Z,1.79
2017-12-21T04:55:21.560Z,1.75
2017-12-21T04:57:47.943Z,1.68
2017-12-21T05:00:14.481Z,1.62
2017-12-21T05:02:40.909Z,1.56
2017-12-21T05:05:07.187Z,1.51
2017-12-21T05:07:33.829Z,1.46
2017-12-21T05:10:00.539Z,1.45
2017-12-21T05:12:26.935Z,1.43
2017-12-21T05:14:53.437Z,1.41
2017-12-21T05:17:19.789Z,1.42
2017-12-21T05:19:46.197Z,1.43
2017-12-21T05:22:12.642Z,1.42
2017-12-21T05:24:39.110Z,1.42
2017-12-21T05:27:05.622Z,1.41
2017-12-21T05:29:32.173Z,1.41
2017-12-21T05:31:58.574Z,1.39
2017-12-21T05:34:24.907Z,1.39
2017-12-21T05:36:51.492Z,1.37
2017-12-21T05:39:18.046Z,1.36
2017-12-21T05:41:44.353Z,1.35
2017-12-21T05:44:10.810Z,1.32
2017-12-21T05:46:37.430Z,1.32
2017-12-21T05:49:04.916Z,1.32
2017-12-21T05:51:31.866Z,1.33
2017-12-21T05:53:58.506Z,1.36
2017-12-21T05:56:25.453Z,1.39
2017-12-21T05:58:51.922Z,1.44
2017-12-21T06:01:18.437Z,1.50
2017-12-21T06:03:45.190Z,1.55
2017-12-21T06:06:11.818Z,1.60
2017-12-21T06:08:38.445Z,1.63
2017-12-21T06:11:04.892Z,1.66
2017-12-21T06:13:31.401Z,1.67
2017-12-21T06:15:57.701Z,1.69
2017-12-21T06:18:24.010Z,1.71
2017-12-21T06:20:50.475Z,1.74
2017-12-21T06:23:16.997Z,1.77
2017-12-21T06:25:43.630Z,1.78
2017-12-21T06:28:10.028Z,1.78
2017-12-21T06:30:36.461Z,1.79
2017-12-21T06:33:03.744Z,1.79
2017-12-21T06:35:30.201Z,1.79
2017-12-21T06:37:56.703Z,1.79
2017-12-21T06:40:23.137Z,1.81
2017-12-21T06:42:49.805Z,1.83
2017-12-21T06:45:16.129Z,1.85
2017-12-21T06:47:42.651Z,1.87
2017-12-21T06:50:09.029Z,1.88
2017-12-21T06:52:35.618Z,1.89
2017-12-21T06:55:03.149Z,1.90
2017-12-21T06:57:29.835Z,1.92
2017-12-21T06:59:56.567Z,1.94
2017-12-21T07:02:23.081Z,1.98
2017-12-21T07:04:49.362Z,2.00
2017-12-21T07:07:15.760Z,2.00
2017-12-21T07:09:42.270Z,2.02
2017-12-21T07:12:08.945Z,2.04
2017-12-21T07:14:35.235Z,2.04
2017-12-21T07:17:01.945Z,2.07
2017-12-21T07:19:28.279Z,2.08
2017-12-21T07:21:54.758Z,2.10
2017-12-21T07:24:21.232Z,2.11
2017-12-21T07:26:47.583Z,2.13
2017-12-21T07:29:14.059Z,2.13
2017-12-21T07:31:40.710Z,2.15
2017-12-21T07:34:07.161Z,2.18
2017-12-21T07:36:33.756Z,2.20
2017-12-21T07:39:00.070Z,2.21
2017-12-21T07:41:26.426Z,2.22
2017-12-21T07:43:53.134Z,2.23
2017-12-21T07:46:19.906Z,2.25
2017-12-21T07:48:46.284Z,2.27
2017-12-21T07:51:12.657Z,2.27
2017-12-21T07:53:38.914Z,2.31
2017-12-21T07:56:05.555Z,2.35
2017-12-21T07:58:32.629Z,2.42
2017-12-21T08:00:59.115Z,2.51
2017-12-21T08:03:25.669Z,2.59
2017-12-21T08:05:52.153Z,2.64
2017-12-21T08:08:18.675Z,2.68
2017-12-21T08:10:45.301Z,2.72
2017-12-21T08:13:11.781Z,2.80
2017-12-21T08:15:38.485Z,2.87
2017-12-21T08:18:04.931Z,2.95
2017-12-21T08:20:31.399Z,3.00
2017-12-21T08:22:58.020Z,3.05
2017-12-21T08:25:24.484Z,3.12
2017-12-21T08:27:50.832Z,3.20
2017-12-21T08:30:17.361Z,3.26
2017-12-21T08:32:43.947Z,3.33
2017-12-21T08:35:10.470Z,3.38
2017-12-21T08:37:36.726Z,3.45
2017-12-21T08:40:03.154Z,3.48
2017-12-21T08:42:29.498Z,3.53
2017-12-21T08:44:55.956Z,3.59
2017-12-21T08:47:22.271Z,3.63
2017-12-21T08:49:48.630Z,3.66
2017-12-21T08:52:15.003Z,3.74
2017-12-21T08:54:41.538Z,3.80
2017-12-21T08:57:08.126Z,3.81
2017-12-21T08:59:34.398Z,3.81
2017-12-21T09:02:00.780Z,3.82
2017-12-21T09:04:26.874Z,3.84
2017-12-21T09:06:53.344Z,3.89
2017-12-21T09:09:19.537Z,3.95
2017-12-21T09:11:45.600Z,4.03
2017-12-21T09:14:12.038Z,4.10
2017-12-21T09:16:38.782Z,4.20
2017-12-21T09:19:05.268Z,4.29
2017-12-21T09:21:31.749Z,4.34
2017-12-21T09:23:58.283Z,4.46
2017-12-21T09:26:24.722Z,4.58
2017-12-21T09:28:51.060Z,4.73
2017-12-21T09:31:17.647Z,4.76
2017-12-21T09:33:44.041Z,4.84
2017-12-21T09:36:10.571Z,4.97
2017-12-21T09:38:37.589Z,5.21
2017-12-21T09:41:03.963Z,5.38
2017-12-21T09:43:30.379Z,5.51
2017-12-21T09:45:56.925Z,5.60
2017-12-21T09:48:23.457Z,5.70
2017-12-21T09:50:49.821Z,5.82
2017-12-21T09:53:15.925Z,5.89
2017-12-21T09:55:41.951Z,5.90
2017-12-21T09:58:08.141Z,5.99
2017-12-21T10:00:34.949Z,6.16
2017-12-21T10:03:01.078Z,6.30
2017-12-21T10:05:27.196Z,6.26
2017-12-21T10:07:53.551Z,6.40
2017-12-21T10:10:20.029Z,6.49
2017-12-21T10:12:46.100Z,6.65
2017-12-21T10:15:12.238Z,6.71
2017-12-21T10:17:38.634Z,6.82
2017-12-21T10:20:05.121Z,6.88
2017-12-21T10:22:31.572Z,6.90
2017-12-21T10:24:57.606Z,6.85
2017-12-21T10:27:24.212Z,6.84
2017-12-21T10:29:50.680Z,6.64
2017-12-21T10:32:17.176Z,6.43
2017-12-21T10:34:43.662Z,6.28
2017-12-21T10:37:10.298Z,6.34
2017-12-21T10:39:36.920Z,6.50
2017-12-21T10:42:03.314Z,6.64
2017-12-21T10:44:29.430Z,6.71
2017-12-21T10:46:55.536Z,6.78
2017-12-21T10:49:22.143Z,6.61
2017-12-21T10:51:48.380Z,6.47
2017-12-21T10:54:19.413Z,6.47
2017-12-21T10:56:47.133Z,6.49
2017-12-21T11:02:43.551Z,6.50
2017-12-21T11:05:10.136Z,6.29
2017-12-21T11:07:36.388Z,6.17
2017-12-21T11:10:02.692Z,6.04
2017-12-21T11:12:28.771Z,5.92
2017-12-21T11:14:54.928Z,6.05
2017-12-21T11:17:21.133Z,6.09
2017-12-21T11:19:47.224Z,6.06
2017-12-21T11:22:13.389Z,6.20
2017-12-21T11:27:15.081Z,6.65
2017-12-21T11:29:41.526Z,6.75
2017-12-21T11:32:07.571Z,6.92
2017-12-21T11:34:33.720Z,7.06
2017-12-21T11:36:59.874Z,7.27
2017-12-21T11:39:26.111Z,7.51
2017-12-21T11:41:52.304Z,7.77
2017-12-21T11:44:18.571Z,8.01
2017-12-21T11:46:45.826Z,8.15
2017-12-21T11:52:00.720Z,8.86
2017-12-21T11:54:26.835Z,9.14
2017-12-21T11:56:52.879Z,9.27
2017-12-21T11:59:19.192Z,9.41
2017-12-21T12:01:46.331Z,9.39
2017-12-21T12:04:12.610Z,9.34
2017-12-21T12:06:38.830Z,9.20
2017-12-21T12:09:04.970Z,9.11
2017-12-21T12:11:31.222Z,9.06
2017-12-21T12:13:57.347Z,8.90
2017-12-21T12:16:23.531Z,8.83
2017-12-21T12:18:49.745Z,8.80
2017-12-21T12:21:15.947Z,8.72
2017-12-21T12:23:42.144Z,8.65
2017-12-21T12:26:08.299Z,8.59
2017-12-21T12:28:34.583Z,8.42
2017-12-21T12:31:00.790Z,8.34
2017-12-21T12:33:27.304Z,8.19
2017-12-21T12:35:53.422Z,8.09
2017-12-21T12:38:19.643Z,8.03
2017-12-21T12:40:45.796Z,7.98
2017-12-21T12:43:12.023Z,7.92
2017-12-21T12:45:38.152Z,7.87
2017-12-21T12:48:04.271Z,7.79
2017-12-21T12:50:30.361Z,7.73
2017-12-21T12:52:56.417Z,7.64
2017-12-21T12:55:22.626Z,7.61
2017-12-21T12:57:48.963Z,7.65
2017-12-21T13:00:15.098Z,7.73
2017-12-21T13:02:41.353Z,7.87
2017-12-21T13:05:07.683Z,7.99
2017-12-21T13:10:02.579Z,8.12
2017-12-21T13:12:28.699Z,8.11
2017-12-21T13:14:55.047Z,7.97
2017-12-21T13:17:21.295Z,7.86
2017-12-21T13:19:47.477Z,7.76
2017-12-21T13:22:13.526Z,7.66
2017-12-21T13:24:39.732Z,7.54
2017-12-21T13:27:05.984Z,7.43
2017-12-21T13:29:32.363Z,7.36
2017-12-21T13:31:58.703Z,7.18
2017-12-21T13:34:24.841Z,7.06
2017-12-21T13:36:51.078Z,6.95
2017-12-21T13:39:17.310Z,6.90
2017-12-21T13:41:43.723Z,6.85
2017-12-21T13:44:09.978Z,6.80
2017-12-21T13:46:36.220Z,6.75
2017-12-21T13:49:02.610Z,6.71
2017-12-21T13:51:28.763Z,6.67
2017-12-21T13:53:55.968Z,6.65
2017-12-21T13:56:22.354Z,6.64
2017-12-21T13:58:48.684Z,6.59
2017-12-21T14:01:22.672Z,6.52
2017-12-21T14:03:48.892Z,6.47
2017-12-21T14:06:15.255Z,6.44
2017-12-21T14:08:41.601Z,6.43
2017-12-21T14:11:08.066Z,6.35
2017-12-21T14:13:34.514Z,6.31
2017-12-21T14:16:00.602Z,6.29
2017-12-21T14:18:26.722Z,6.29
2017-12-21T14:20:52.862Z,6.24
2017-12-21T14:23:19.250Z,6.24
2017-12-21T14:25:45.371Z,6.24
2017-12-21T14:28:11.618Z,6.21
2017-12-21T14:30:37.807Z,6.18
2017-12-21T14:33:03.992Z,6.16
2017-12-21T14:35:32.054Z,6.13
2017-12-21T14:37:58.279Z,6.10
2017-12-21T14:40:24.685Z,6.06
2017-12-21T14:42:52.265Z,6.01
2017-12-21T14:45:18.441Z,5.94
2017-12-21T14:47:44.647Z,5.91
2017-12-21T14:50:11.223Z,5.89
2017-12-21T14:52:37.849Z,5.85
2017-12-21T14:55:10.195Z,5.81
2017-12-21T14:57:37.442Z,5.77
2017-12-21T15:00:04.537Z,5.74
2017-12-21T15:02:30.710Z,5.67
2017-12-21T15:04:56.798Z,5.63
2017-12-21T15:07:23.167Z,5.59
2017-12-21T15:09:49.526Z,5.58
2017-12-21T15:12:15.890Z,5.54
2017-12-21T15:14:42.158Z,5.53
2017-12-21T15:17:09.727Z,5.50
2017-12-21T15:19:36.406Z,5.46
2017-12-21T15:22:02.878Z,5.41
2017-12-21T15:24:29.302Z,5.40
2017-12-21T15:26:55.596Z,5.36
2017-12-21T15:29:22.150Z,5.31
2017-12-21T15:31:48.984Z,5.28
2017-12-21T15:34:15.302Z,5.24
2017-12-21T15:36:41.878Z,5.21
2017-12-21T15:39:08.747Z,5.20
2017-12-21T15:41:34.824Z,5.17
2017-12-21T15:44:01.096Z,5.14
2017-12-21T15:46:27.368Z,5.10
2017-12-21T15:48:53.532Z,5.06
2017-12-21T15:51:19.819Z,5.01
2017-12-21T15:53:46.075Z,4.97
2017-12-21T15:56:12.408Z,4.95
2017-12-21T15:58:38.715Z,4.91
2017-12-21T16:01:04.823Z,4.89
2017-12-21T16:03:31.253Z,4.86
2017-12-21T16:05:57.561Z,4.82
2017-12-21T16:08:23.985Z,4.80
2017-12-21T16:10:50.545Z,4.79
2017-12-21T16:13:16.933Z,4.79
2017-12-21T16:15:43.129Z,4.79
2017-12-21T16:18:10.805Z,4.77
2017-12-21T16:23:15.205Z,4.74
2017-12-21T16:25:41.810Z,4.73
2017-12-21T16:28:08.033Z,4.72
2017-12-21T16:30:35.151Z,4.70
2017-12-21T16:33:01.383Z,4.69
2017-12-21T16:35:27.613Z,4.69
2017-12-21T16:37:53.800Z,4.69
2017-12-21T16:40:19.998Z,4.66
2017-12-21T16:42:47.329Z,4.64
2017-12-21T16:45:13.544Z,4.61
2017-12-21T16:47:39.713Z,4.61
2017-12-21T16:50:14.456Z,4.60
2017-12-21T16:52:40.829Z,4.59
2017-12-21T16:55:07.205Z,4.58
2017-12-21T16:57:33.457Z,4.56
2017-12-21T17:00:00.458Z,4.55
2017-12-21T17:02:26.912Z,4.53
2017-12-21T17:04:58.076Z,4.51
2017-12-21T17:07:27.673Z,4.48
2017-12-21T17:09:54.490Z,4.46
2017-12-21T17:12:21.231Z,4.45
2017-12-21T17:14:49.960Z,4.43
2017-12-21T17:17:17.891Z,4.42
2017-12-21T17:19:45.922Z,4.42
2017-12-21T17:22:12.171Z,4.42
2017-12-21T17:24:38.741Z,4.43
2017-12-21T17:27:04.917Z,4.43
2017-12-21T17:29:31.391Z,4.41
2017-12-21T17:31:57.820Z,4.40
2017-12-21T17:34:24.435Z,4.40
2017-12-21T17:36:50.896Z,4.39
2017-12-21T17:39:17.555Z,4.37
2017-12-21T17:41:44.067Z,4.36
2017-12-21T17:44:10.472Z,4.35
2017-12-21T17:46:37.040Z,4.34
2017-12-21T17:49:03.336Z,4.34
2017-12-21T17:51:29.813Z,4.33
2017-12-21T17:53:56.279Z,4.32
2017-12-21T17:56:23.625Z,4.31
2017-12-21T17:58:50.190Z,4.29
2017-12-21T18:01:16.346Z,4.28
2017-12-21T18:03:42.989Z,4.27
2017-12-21T18:06:09.186Z,4.27
2017-12-21T18:08:35.662Z,4.24
2017-12-21T18:11:01.812Z,4.23
2017-12-21T18:13:27.922Z,4.22
2017-12-21T18:15:54.323Z,4.22
2017-12-21T18:18:20.561Z,4.23
2017-12-21T18:20:46.857Z,4.23
2017-12-21T18:23:13.075Z,4.23
2017-12-21T18:25:39.328Z,4.23
2017-12-21T18:28:05.926Z,4.22
2017-12-21T18:30:32.263Z,4.22
2017-12-21T18:32:58.438Z,4.22
2017-12-21T18:35:25.108Z,4.20
2017-12-21T18:37:51.725Z,4.18
2017-12-21T18:40:18.050Z,4.17
2017-12-21T18:42:44.495Z,4.14
2017-12-21T18:45:10.776Z,4.12
2017-12-21T18:47:37.357Z,4.12
2017-12-21T18:50:03.969Z,4.13
2017-12-21T18:52:30.467Z,4.13
2017-12-21T18:54:57.382Z,4.11
2017-12-21T18:57:23.845Z,4.09
2017-12-21T18:59:50.537Z,4.08
2017-12-21T19:02:17.168Z,4.08
2017-12-21T19:04:43.734Z,4.07
2017-12-21T19:07:11.076Z,4.07
2017-12-21T19:09:37.595Z,4.07
2017-12-21T19:12:04.207Z,4.05
2017-12-21T19:14:30.789Z,4.04
2017-12-21T19:16:57.458Z,4.03
2017-12-21T19:19:24.094Z,4.02
2017-12-21T19:21:50.838Z,4.03
2017-12-21T19:24:17.539Z,4.04
2017-12-21T19:26:44.258Z,4.04
2017-12-21T19:29:13.003Z,4.05
2017-12-21T19:31:39.914Z,4.05
2017-12-21T19:34:06.922Z,4.05
2017-12-21T19:36:33.517Z,4.06
2017-12-21T19:39:00.390Z,4.05
2017-12-21T19:41:27.191Z,4.04
2017-12-21T19:43:53.981Z,4.02
2017-12-21T19:46:20.545Z,4.00
2017-12-21T19:48:48.426Z,3.98
2017-12-21T19:51:14.999Z,3.95
2017-12-21T19:53:41.959Z,3.94
2017-12-21T19:56:13.661Z,3.93
2017-12-21T19:58:40.900Z,3.96
2017-12-21T20:01:11.836Z,3.97
2017-12-21T20:03:38.638Z,3.98
2017-12-21T20:06:05.597Z,3.98
2017-12-21T20:08:33.120Z,3.98
2017-12-21T20:10:59.857Z,3.97
2017-12-21T20:13:26.613Z,3.96
2017-12-21T20:15:53.461Z,3.94
2017-12-21T20:18:20.174Z,3.93
2017-12-21T20:20:47.031Z,3.91
2017-12-21T20:23:13.755Z,3.90
2017-12-21T20:25:40.940Z,3.87
2017-12-21T20:28:07.561Z,3.85
2017-12-21T20:30:34.345Z,3.83
2017-12-21T20:33:01.320Z,3.82
2017-12-21T20:35:27.950Z,3.81
2017-12-21T20:37:54.611Z,3.81
2017-12-21T20:40:21.482Z,3.81
2017-12-21T20:42:48.547Z,3.82
2017-12-21T20:45:15.424Z,3.83
2017-12-21T20:47:42.506Z,3.84
2017-12-21T20:50:09.281Z,3.84
2017-12-21T20:52:36.186Z,3.85
2017-12-21T20:57:37.453Z,3.86
2017-12-21T21:00:03.975Z,3.86
2017-12-21T21:02:30.774Z,3.86
2017-12-21T21:04:57.520Z,3.86
2017-12-21T21:07:24.223Z,3.84
2017-12-21T21:09:50.706Z,3.83
2017-12-21T21:12:17.479Z,3.80
2017-12-21T21:14:44.219Z,3.76
2017-12-21T21:17:10.865Z,3.73
2017-12-21T21:19:37.399Z,3.72
2017-12-21T21:22:03.881Z,3.71
2017-12-21T21:24:30.585Z,3.69
2017-12-21T21:26:57.382Z,3.68
2017-12-21T21:29:24.158Z,3.66
2017-12-21T21:31:50.706Z,3.65
2017-12-21T21:34:17.411Z,3.66
2017-12-21T21:36:44.001Z,3.66
2017-12-21T21:39:10.539Z,3.66
2017-12-21T21:41:37.179Z,3.66
2017-12-21T21:44:03.744Z,3.67
2017-12-21T21:46:30.472Z,3.70
2017-12-21T21:48:56.801Z,3.71
2017-12-21T21:51:23.266Z,3.71
2017-12-21T21:53:49.890Z,3.71
2017-12-21T21:56:16.226Z,3.72
2017-12-21T21:58:42.432Z,3.71
2017-12-21T22:01:12.533Z,3.72
2017-12-21T22:03:38.790Z,3.72
2017-12-21T22:06:05.171Z,3.72
2017-12-21T22:08:31.387Z,3.71
2017-12-21T22:10:57.875Z,3.71
2017-12-21T22:13:24.248Z,3.71
2017-12-21T22:15:51.711Z,3.72
2017-12-21T22:18:18.129Z,3.73
2017-12-21T22:20:44.442Z,3.73
2017-12-21T22:23:10.760Z,3.74
2017-12-21T22:25:37.288Z,3.74
2017-12-21T22:28:03.765Z,3.74
2017-12-21T22:30:30.163Z,3.75
2017-12-21T22:32:56.851Z,3.74
2017-12-21T22:35:23.302Z,3.76
2017-12-21T22:37:49.629Z,3.76
2017-12-21T22:40:16.137Z,3.77
2017-12-21T22:42:42.455Z,3.79
2017-12-21T22:45:09.026Z,3.79
2017-12-21T22:47:35.567Z,3.80
2017-12-21T22:50:01.770Z,3.80
2017-12-21T22:52:28.252Z,3.79
2017-12-21T22:54:54.807Z,3.79
2017-12-21T22:57:21.030Z,3.80
2017-12-21T22:59:47.408Z,3.80
2017-12-21T23:02:13.869Z,3.80
2017-12-21T23:04:40.253Z,3.80
2017-12-21T23:07:07.025Z,3.78
2017-12-21T23:09:33.399Z,3.77
2017-12-21T23:12:00.251Z,3.75
2017-12-21T23:14:26.458Z,3.76
2017-12-21T23:16:52.807Z,3.76
2017-12-21T23:19:19.151Z,3.76
2017-12-21T23:21:45.397Z,3.75
2017-12-21T23:24:11.911Z,3.75
2017-12-21T23:26:38.169Z,3.75
2017-12-21T23:29:04.568Z,3.75
2017-12-21T23:31:31.138Z,3.75
2017-12-21T23:33:57.638Z,3.73
2017-12-21T23:36:24.072Z,3.71
2017-12-21T23:38:50.330Z,3.71
2017-12-21T23:41:16.624Z,3.72
2017-12-21T23:43:42.908Z,3.72
2017-12-21T23:46:09.239Z,3.71
2017-12-21T23:48:35.714Z,3.69
2017-12-21T23:51:02.151Z,3.66
2017-12-21T23:53:28.578Z,3.62
2017-12-21T23:55:54.825Z,3.59
2017-12-21T23:58:21.319Z,3.56
